Impacts METAR Board
IDs:

KSLC - Salt Lake City Intl, UT, US

Updated at: 1000 UTC 24 Jan 2019
Potential Impact None Slight Moderate High
Time 23/22Z 23/23Z 24/00Z 24/01Z 24/02Z 24/03Z 24/04Z 24/05Z 24/06Z 24/07Z 24/08Z 24/09Z 24/10Z
Temp30 32 32 32 32 32 32 30 29 30 31 31 31
Dewpt19 19 19 18 22 23 21 24 25 26 27 27 27
Altim30.22 30.22 30.22 30.21 30.24 30.25 30.24 30.25 30.25 30.25 30.25 30.26 30.27
VIS10 10 10 10 10 9 10 8 10 10 10 10 10
CIG60 60 60 50 50 46 40 36 39 39 39 35 33
CoverBKNBKNOVCOVCOVCOVCOVCOVCBKNOVCOVCOVCOVC
FltCatVFRVFRVFRVFRVFRVFRVFRVFRVFRVFRVFRVFRVFR
WX---------------SN----------
WDir140110110150110220180110160150150120130
WSpd5 6 5 8 3 5 6 7 9 5 7 7 6
WGst-- -- -- -- -- -- -- -- -- -- -- -- --
Raw hourly METARs
KSLC 232154Z 14005KT 10SM BKN060 BKN080 M01/M07 A3022 RMK AO2 SNE2059 SLP260 VIRGA P0000 T10111072
KSLC 232254Z 11006KT 10SM BKN060 BKN075 00/M07 A3022 RMK AO2 SLP255 T00001072
KSLC 232354Z 11005KT 10SM BKN060 OVC075 00/M07 A3022 RMK AO2 SLP255 4/003 60000 T00001072 10000 21028 56010
KSLC 240054Z 15008KT 10SM BKN050 OVC060 00/M08 A3021 RMK AO2 SLP252 VCSH P0000 T00001078
KSLC 240154Z 11003KT 10SM BKN050 OVC065 00/M06 A3024 RMK AO2 SLP262 T00001056
KSLC 240254Z 22005KT 9SM BKN046 OVC060 00/M05 A3025 RMK AO2 SLP264 60000 T00001050 53009
KSLC 240354Z 18006KT 10SM BKN040 OVC050 00/M06 A3024 RMK AO2 SNB0258E18 SLP260 SH N P0000 T00001061
KSLC 240454Z 11007KT 8SM -SN SCT026 OVC036 M01/M04 A3025 RMK AO2 SNB24 SLP266 P0000 T10111044
KSLC 240554Z 16009KT 10SM BKN039 BKN045 M02/M04 A3025 RMK AO2 SNE34 SLP264 4/003 P0001 60001 T10171039 10006 21017 50001
KSLC 240654Z 15005KT 10SM BKN039 OVC045 M01/M03 A3025 RMK AO2 SLP264 T10111033 400061078
KSLC 240754Z 15007KT 10SM OVC039 M01/M03 A3025 RMK AO2 SLP260 P0000 T10061028
KSLC 240854Z 12007KT 10SM OVC035 M01/M03 A3026 RMK AO2 SLP262 60000 T10061028 52003
KSLC 240954Z 13006KT 10SM BKN033 OVC050 M01/M03 A3027 RMK AO2 SLP267 T10061028



Page loaded:  10:48 UTC  |   02:48 AM Pacific  |   03:48 AM Mountain  |   04:48 AM Central  |   05:48 AM Eastern

 

ADVISORIES

FORECASTS

FORECASTS

OBSERVATIONS

USER TOOLS

ABOUT US